createdAt,value
2023-02-26T00:01:25.271Z,16.11
2023-02-26T00:03:54.493Z,16.18
2023-02-26T00:06:22.570Z,16.40
2023-02-26T00:08:50.581Z,16.21
2023-02-26T00:11:19.030Z,16.37
2023-02-26T00:13:47.889Z,16.03
2023-02-26T00:16:28.293Z,16.30
2023-02-26T00:18:57.250Z,16.10
2023-02-26T00:21:26.549Z,16.03
2023-02-26T00:23:54.729Z,15.79
2023-02-26T00:26:24.766Z,16.01
2023-02-26T00:28:53.304Z,16.01
2023-02-26T00:31:24.722Z,15.83
2023-02-26T00:33:55.897Z,15.68
2023-02-26T00:36:26.048Z,16.12
2023-02-26T00:39:17.281Z,15.85
2023-02-26T00:41:45.927Z,15.96
2023-02-26T00:44:14.522Z,15.95
2023-02-26T00:46:47.784Z,15.97
2023-02-26T00:49:28.595Z,15.78
2023-02-26T00:51:59.454Z,15.67
2023-02-26T00:54:29.827Z,15.90
2023-02-26T00:56:59.765Z,15.93
2023-02-26T00:59:28.044Z,15.65
2023-02-26T01:01:56.024Z,15.75
2023-02-26T01:04:26.594Z,16.00
2023-02-26T01:06:58.043Z,15.59
2023-02-26T01:09:29.789Z,15.88
2023-02-26T01:12:01.861Z,15.91
2023-02-26T01:14:31.407Z,16.19
2023-02-26T01:17:07.558Z,15.90
2023-02-26T01:19:45.090Z,15.83
2023-02-26T01:22:20.203Z,16.06
2023-02-26T01:24:50.250Z,15.95
2023-02-26T01:27:18.792Z,15.88
2023-02-26T01:29:47.090Z,15.93
2023-02-26T01:32:21.114Z,15.84
2023-02-26T01:35:01.367Z,15.83
2023-02-26T01:37:36.415Z,16.02
2023-02-26T01:40:29.005Z,15.71
2023-02-26T01:43:04.488Z,16.08
2023-02-26T01:45:36.624Z,16.06
2023-02-26T01:48:07.692Z,16.05
2023-02-26T01:50:39.682Z,16.10
2023-02-26T01:53:24.063Z,15.94
2023-02-26T01:55:57.023Z,15.96
2023-02-26T01:58:29.459Z,15.87
2023-02-26T02:00:57.615Z,16.05
2023-02-26T02:03:27.354Z,15.91
2023-02-26T02:06:01.751Z,15.82
2023-02-26T02:08:30.561Z,15.90
2023-02-26T02:10:59.079Z,15.61
2023-02-26T02:13:37.560Z,15.60
2023-02-26T02:16:18.200Z,15.68
2023-02-26T02:18:55.179Z,15.51
2023-02-26T02:21:55.737Z,15.69
2023-02-26T02:24:36.077Z,15.79
2023-02-26T02:27:11.847Z,15.98
2023-02-26T02:30:05.262Z,15.85
2023-02-26T02:32:40.785Z,15.88
2023-02-26T02:35:16.292Z,15.76
2023-02-26T02:37:49.700Z,15.82
2023-02-26T02:40:22.342Z,15.86
2023-02-26T02:42:55.408Z,15.95
2023-02-26T02:45:29.841Z,16.08
2023-02-26T02:48:05.430Z,15.87
2023-02-26T02:50:38.220Z,15.72
2023-02-26T02:53:12.195Z,15.77
2023-02-26T02:55:45.620Z,15.77
2023-02-26T02:58:16.100Z,15.84
2023-02-26T03:00:48.962Z,15.90
2023-02-26T03:03:22.589Z,15.88
2023-02-26T03:05:50.618Z,15.98
2023-02-26T03:08:22.181Z,16.04
2023-02-26T03:10:50.270Z,16.08
2023-02-26T03:13:22.852Z,15.97
2023-02-26T03:16:19.115Z,15.94
2023-02-26T03:18:58.697Z,15.76
2023-02-26T03:21:33.248Z,15.81
2023-02-26T03:24:08.846Z,15.84
2023-02-26T03:26:44.487Z,16.01
2023-02-26T03:29:21.012Z,15.98
2023-02-26T03:31:56.396Z,15.65
2023-02-26T03:34:34.687Z,15.69
2023-02-26T03:37:09.723Z,15.85
2023-02-26T03:39:41.548Z,15.95
2023-02-26T03:42:16.956Z,15.70
2023-02-26T03:44:56.213Z,16.05
2023-02-26T03:47:24.881Z,15.79
2023-02-26T03:50:02.715Z,15.94
2023-02-26T03:52:36.807Z,15.78
2023-02-26T03:55:27.982Z,15.76
2023-02-26T03:58:16.364Z,15.97
2023-02-26T04:01:00.601Z,15.78
2023-02-26T04:03:33.940Z,15.86
2023-02-26T04:06:04.370Z,15.85
2023-02-26T04:08:32.573Z,16.01
2023-02-26T04:11:07.436Z,15.74
2023-02-26T04:13:35.725Z,15.78
2023-02-26T04:16:04.879Z,15.78
2023-02-26T04:18:32.907Z,15.86
2023-02-26T04:21:01.100Z,15.87
2023-02-26T04:23:31.007Z,15.68
2023-02-26T04:25:59.679Z,15.92
2023-02-26T04:28:27.739Z,15.71
2023-02-26T04:30:55.851Z,16.05
2023-02-26T04:33:24.325Z,15.84
2023-02-26T04:35:52.342Z,15.90
2023-02-26T04:38:21.046Z,15.80
2023-02-26T04:40:51.571Z,15.97
2023-02-26T04:43:21.097Z,15.98
2023-02-26T04:45:59.890Z,15.95
2023-02-26T04:48:28.118Z,16.03
2023-02-26T04:50:56.258Z,15.96
2023-02-26T04:53:24.240Z,16.18
2023-02-26T04:55:53.569Z,15.96
2023-02-26T04:58:22.360Z,16.32
2023-02-26T05:00:51.168Z,16.34
2023-02-26T05:03:19.519Z,16.12
2023-02-26T05:05:48.973Z,16.15
2023-02-26T05:08:16.959Z,16.15
2023-02-26T05:10:45.076Z,15.95
2023-02-26T05:13:14.563Z,16.17
2023-02-26T05:15:42.594Z,15.95
2023-02-26T05:18:12.805Z,15.94
2023-02-26T05:20:42.486Z,16.12
2023-02-26T05:23:10.458Z,15.90
2023-02-26T05:25:40.488Z,16.13
2023-02-26T05:28:08.499Z,16.21
2023-02-26T05:30:37.961Z,16.20
2023-02-26T05:33:06.011Z,15.95
2023-02-26T05:35:33.992Z,15.99
2023-02-26T05:38:02.009Z,15.99
2023-02-26T05:40:30.064Z,15.82
2023-02-26T05:42:58.057Z,15.95
2023-02-26T05:45:26.136Z,16.15
2023-02-26T05:47:55.894Z,15.86
2023-02-26T05:50:23.921Z,15.86
2023-02-26T05:52:51.957Z,15.94
2023-02-26T05:55:20.446Z,15.88
2023-02-26T05:57:48.416Z,15.96
2023-02-26T06:00:16.992Z,15.64
2023-02-26T06:02:44.962Z,16.02
2023-02-26T06:05:14.338Z,15.78
2023-02-26T06:07:42.379Z,15.78
2023-02-26T06:10:11.965Z,16.00
2023-02-26T06:12:40.033Z,15.99
2023-02-26T06:15:09.706Z,15.83
2023-02-26T06:17:40.583Z,15.95
2023-02-26T06:20:10.357Z,15.93
2023-02-26T06:22:39.993Z,15.87
2023-02-26T06:25:08.819Z,15.80
2023-02-26T06:27:36.815Z,15.93
2023-02-26T06:30:05.103Z,15.77
2023-02-26T06:32:33.131Z,15.80
2023-02-26T06:35:01.164Z,15.85
2023-02-26T06:37:29.151Z,15.74
2023-02-26T06:39:58.498Z,16.02
2023-02-26T06:42:26.484Z,15.89
2023-02-26T06:44:54.506Z,15.89
2023-02-26T06:47:22.838Z,15.86
2023-02-26T06:49:50.774Z,15.78
2023-02-26T06:52:18.885Z,15.73
2023-02-26T06:54:47.059Z,15.83
2023-02-26T06:57:16.494Z,15.78
2023-02-26T06:59:44.468Z,15.97
2023-02-26T07:02:17.847Z,15.76
2023-02-26T07:04:45.853Z,15.83
2023-02-26T07:07:14.283Z,16.02
2023-02-26T07:09:44.431Z,16.05
2023-02-26T07:12:13.853Z,15.97
2023-02-26T07:14:44.982Z,15.82
2023-02-26T07:17:20.365Z,15.97
2023-02-26T07:19:49.061Z,15.96
2023-02-26T07:22:18.469Z,15.59
2023-02-26T07:24:47.730Z,15.97
2023-02-26T07:27:15.755Z,15.76
2023-02-26T07:29:45.128Z,15.70
2023-02-26T07:32:13.160Z,15.77
2023-02-26T07:34:41.151Z,15.92
2023-02-26T07:37:09.583Z,15.82
2023-02-26T07:39:37.491Z,15.70
2023-02-26T07:42:05.977Z,15.72
2023-02-26T07:44:34.660Z,16.02
2023-02-26T07:47:04.544Z,15.99
2023-02-26T07:49:34.132Z,16.00
2023-02-26T07:52:02.108Z,15.85
2023-02-26T07:54:30.099Z,15.99
2023-02-26T07:56:58.004Z,15.86
2023-02-26T07:59:26.010Z,15.66
2023-02-26T08:01:54.034Z,15.71
2023-02-26T08:04:23.785Z,15.75
2023-02-26T08:06:54.692Z,16.05
2023-02-26T08:09:23.355Z,15.94
2023-02-26T08:11:51.421Z,15.65
2023-02-26T08:14:19.478Z,15.75
2023-02-26T08:16:47.456Z,16.07
2023-02-26T08:19:15.528Z,15.98
2023-02-26T08:21:44.847Z,15.77
2023-02-26T08:24:13.056Z,15.64
2023-02-26T08:26:41.083Z,16.09
2023-02-26T08:29:09.029Z,16.02
2023-02-26T08:31:37.135Z,15.79
2023-02-26T08:34:05.242Z,16.07
2023-02-26T08:36:33.907Z,15.77
2023-02-26T08:39:03.291Z,15.79
2023-02-26T08:41:32.654Z,15.86
2023-02-26T08:44:01.809Z,15.83
2023-02-26T08:46:30.332Z,16.00
2023-02-26T08:48:58.456Z,16.26
2023-02-26T08:51:26.960Z,16.14
2023-02-26T08:53:55.133Z,16.10
2023-02-26T08:56:24.788Z,16.51
2023-02-26T08:58:53.413Z,16.38
2023-02-26T09:01:21.488Z,16.01
2023-02-26T09:03:49.438Z,16.19
2023-02-26T09:06:17.458Z,15.92
2023-02-26T09:08:45.403Z,15.92
2023-02-26T09:11:13.419Z,16.24
2023-02-26T09:13:42.827Z,15.84
2023-02-26T09:16:12.421Z,16.09
2023-02-26T09:18:40.619Z,16.10
2023-02-26T09:21:08.622Z,16.30
2023-02-26T09:23:36.721Z,16.20
2023-02-26T09:26:04.892Z,16.31
2023-02-26T09:28:33.030Z,16.42
2023-02-26T09:31:02.389Z,16.40
2023-02-26T09:33:30.428Z,16.57
2023-02-26T09:35:58.442Z,16.59
2023-02-26T09:38:26.654Z,16.36
2023-02-26T09:40:58.102Z,16.57
2023-02-26T09:43:49.629Z,16.44
2023-02-26T09:46:30.092Z,16.36
2023-02-26T09:49:14.718Z,16.37
2023-02-26T09:51:45.314Z,16.65
2023-02-26T09:54:18.650Z,16.58
2023-02-26T09:56:48.022Z,16.27
2023-02-26T09:59:15.983Z,16.56
2023-02-26T10:01:50.118Z,16.36
2023-02-26T10:04:28.007Z,16.34
2023-02-26T10:07:12.504Z,16.19
2023-02-26T10:09:53.015Z,16.59
2023-02-26T10:12:24.255Z,16.22
2023-02-26T10:15:02.880Z,16.18
2023-02-26T10:17:36.455Z,16.55
2023-02-26T10:20:11.468Z,16.54
2023-02-26T10:22:43.984Z,16.40
2023-02-26T10:25:16.046Z,16.36
2023-02-26T10:27:54.751Z,16.66
2023-02-26T10:30:31.631Z,16.32
2023-02-26T10:33:08.735Z,16.49
2023-02-26T10:35:44.474Z,16.16
2023-02-26T10:38:15.176Z,16.25
2023-02-26T10:40:50.315Z,16.15
2023-02-26T10:43:22.998Z,16.10
2023-02-26T10:46:05.825Z,16.15
2023-02-26T10:48:47.549Z,16.39
2023-02-26T10:51:18.012Z,16.73
2023-02-26T10:53:54.598Z,17.09
2023-02-26T10:56:26.024Z,18.17
2023-02-26T10:58:55.045Z,19.04
2023-02-26T11:01:25.809Z,19.86
2023-02-26T11:04:00.120Z,20.89
2023-02-26T11:06:31.670Z,20.96
2023-02-26T11:09:02.830Z,21.38
2023-02-26T11:11:42.115Z,21.24
2023-02-26T11:14:11.521Z,20.41
2023-02-26T11:16:49.167Z,20.60
2023-02-26T11:19:21.340Z,20.19
2023-02-26T11:21:51.963Z,19.60
2023-02-26T11:24:27.472Z,19.44
2023-02-26T11:26:57.283Z,19.35
2023-02-26T11:29:27.466Z,18.57
2023-02-26T11:31:58.249Z,18.79
2023-02-26T11:34:27.860Z,18.27
2023-02-26T11:37:00.040Z,18.67
2023-02-26T11:39:30.434Z,18.10
2023-02-26T11:41:59.885Z,18.41
2023-02-26T11:44:36.718Z,17.88
2023-02-26T11:47:08.312Z,17.84
2023-02-26T11:49:44.990Z,18.15
2023-02-26T11:52:23.548Z,17.86
2023-02-26T11:54:56.540Z,17.59
2023-02-26T11:57:27.193Z,17.69
2023-02-26T11:59:57.111Z,17.64
2023-02-26T12:02:29.410Z,17.41
2023-02-26T12:05:01.949Z,17.61
2023-02-26T12:07:32.061Z,17.50
2023-02-26T12:10:00.233Z,17.57
2023-02-26T12:12:58.834Z,17.60
2023-02-26T12:15:36.338Z,17.17
2023-02-26T12:18:23.316Z,17.12
2023-02-26T12:21:06.946Z,17.27
2023-02-26T12:23:58.796Z,17.29
2023-02-26T12:26:32.383Z,17.28
2023-02-26T12:29:16.883Z,16.68
2023-02-26T12:32:04.415Z,17.20
2023-02-26T12:34:59.921Z,16.76
2023-02-26T12:37:43.743Z,17.02
2023-02-26T12:40:32.054Z,16.88
2023-02-26T12:43:07.425Z,16.86
2023-02-26T12:45:47.224Z,16.95
2023-02-26T12:48:45.149Z,16.80
2023-02-26T12:51:24.624Z,17.03
2023-02-26T12:54:28.210Z,17.05
2023-02-26T12:57:20.893Z,16.88
2023-02-26T13:00:19.457Z,16.64
2023-02-26T13:03:24.404Z,16.87
2023-02-26T13:06:19.511Z,17.02
2023-02-26T13:08:59.019Z,16.66
2023-02-26T13:11:43.093Z,16.61
2023-02-26T13:14:27.112Z,16.45
2023-02-26T13:17:02.400Z,16.51
2023-02-26T13:19:39.453Z,16.44
2023-02-26T13:22:16.132Z,16.66
2023-02-26T13:24:47.512Z,16.83
2023-02-26T13:27:18.576Z,16.42
2023-02-26T13:29:52.517Z,17.46
2023-02-26T13:32:25.979Z,18.01
2023-02-26T13:34:58.724Z,18.55
2023-02-26T13:37:29.322Z,18.54
2023-02-26T13:40:17.319Z,18.73
2023-02-26T13:42:52.662Z,18.31
2023-02-26T13:45:36.334Z,18.47
2023-02-26T13:48:18.592Z,19.14
2023-02-26T13:50:57.040Z,18.66
2023-02-26T13:53:56.085Z,18.78
2023-02-26T13:56:45.008Z,18.54
2023-02-26T13:59:53.968Z,18.73
2023-02-26T14:02:46.174Z,19.03
2023-02-26T14:05:49.925Z,19.49
2023-02-26T14:08:45.510Z,19.73
2023-02-26T14:11:50.624Z,19.81
2023-02-26T14:14:30.774Z,19.19
2023-02-26T14:17:29.653Z,19.61
2023-02-26T14:20:22.949Z,19.48
2023-02-26T14:22:55.231Z,19.51
2023-02-26T14:25:34.867Z,19.05
2023-02-26T14:28:36.201Z,18.95
2023-02-26T14:31:17.538Z,19.05
2023-02-26T14:33:49.061Z,19.05
2023-02-26T14:36:22.209Z,18.72
2023-02-26T14:38:52.947Z,18.96
2023-02-26T14:41:29.320Z,18.97
2023-02-26T14:44:03.599Z,18.45
2023-02-26T14:46:31.959Z,18.44
2023-02-26T14:49:01.587Z,18.65
2023-02-26T14:51:43.545Z,18.59
2023-02-26T14:54:33.700Z,18.34
2023-02-26T14:57:05.367Z,18.34
2023-02-26T14:59:51.467Z,18.51
2023-02-26T15:02:31.510Z,18.00
2023-02-26T15:05:15.572Z,18.37
2023-02-26T15:07:56.640Z,17.95
2023-02-26T15:10:40.135Z,17.69
2023-02-26T15:13:26.046Z,17.90
2023-02-26T15:15:57.650Z,18.04
2023-02-26T15:18:59.059Z,17.60
2023-02-26T15:21:37.195Z,17.76
2023-02-26T15:24:07.660Z,17.62
2023-02-26T15:26:38.390Z,17.94
2023-02-26T15:29:11.120Z,17.83
2023-02-26T15:31:44.524Z,17.45
2023-02-26T15:34:13.783Z,17.64
2023-02-26T15:36:45.975Z,17.51
2023-02-26T15:39:15.965Z,17.67
2023-02-26T15:41:45.055Z,17.96
2023-02-26T15:44:19.761Z,17.67
2023-02-26T15:46:54.221Z,18.11
2023-02-26T15:49:26.353Z,17.86
2023-02-26T15:51:56.235Z,18.22
2023-02-26T15:54:35.564Z,17.82
2023-02-26T15:57:05.418Z,17.60
2023-02-26T15:59:36.240Z,17.98
2023-02-26T16:02:05.310Z,18.06
2023-02-26T16:04:36.687Z,17.85
2023-02-26T16:07:06.237Z,17.93
2023-02-26T16:09:37.945Z,18.06
2023-02-26T16:12:09.546Z,17.99
2023-02-26T16:14:40.545Z,17.98
2023-02-26T16:17:13.440Z,17.91
2023-02-26T16:19:44.726Z,17.48
2023-02-26T16:22:22.511Z,17.93
2023-02-26T16:24:55.465Z,17.92
2023-02-26T16:27:27.681Z,17.75
2023-02-26T16:29:59.016Z,17.38
2023-02-26T16:32:33.333Z,17.36
2023-02-26T16:35:09.243Z,17.43
2023-02-26T16:37:42.957Z,17.69
2023-02-26T16:40:20.210Z,17.12
2023-02-26T16:42:56.116Z,17.32
2023-02-26T16:45:36.579Z,17.48
2023-02-26T16:48:10.971Z,17.66
2023-02-26T16:50:39.469Z,17.18
2023-02-26T16:53:14.597Z,17.42
2023-02-26T16:55:48.501Z,17.10
2023-02-26T16:58:17.730Z,17.38
2023-02-26T17:00:46.949Z,17.07
2023-02-26T17:03:18.399Z,17.38
2023-02-26T17:05:54.811Z,16.94
2023-02-26T17:08:28.588Z,17.28
2023-02-26T17:11:02.909Z,17.51
2023-02-26T17:13:32.857Z,17.51
2023-02-26T17:16:03.644Z,17.14
2023-02-26T17:18:32.207Z,17.36
2023-02-26T17:21:04.197Z,17.38
2023-02-26T17:23:37.949Z,17.46
2023-02-26T17:26:06.543Z,17.38
2023-02-26T17:28:39.800Z,17.45
2023-02-26T17:31:08.313Z,17.38
2023-02-26T17:33:37.972Z,17.36
2023-02-26T17:36:07.457Z,17.11
2023-02-26T17:38:36.822Z,17.35
2023-02-26T17:41:04.978Z,16.99
2023-02-26T17:43:33.507Z,17.38
2023-02-26T17:46:01.553Z,16.90
2023-02-26T17:48:30.964Z,17.34
2023-02-26T17:50:59.493Z,17.00
2023-02-26T17:53:28.325Z,16.91
2023-02-26T17:55:59.983Z,16.90
2023-02-26T17:58:30.666Z,16.93
2023-02-26T18:00:59.001Z,17.16
2023-02-26T18:03:27.522Z,17.05
2023-02-26T18:05:57.126Z,16.96
2023-02-26T18:08:26.930Z,17.22
2023-02-26T18:10:55.876Z,16.72
2023-02-26T18:13:25.449Z,17.08
2023-02-26T18:15:53.953Z,16.87
2023-02-26T18:18:23.399Z,16.90
2023-02-26T18:20:52.995Z,17.26
2023-02-26T18:23:21.178Z,16.98
2023-02-26T18:25:51.079Z,17.05
2023-02-26T18:28:22.368Z,17.07
2023-02-26T18:30:52.444Z,17.16
2023-02-26T18:33:21.306Z,17.20
2023-02-26T18:35:55.037Z,17.02
2023-02-26T18:38:24.976Z,16.55
2023-02-26T18:40:53.807Z,16.93
2023-02-26T18:43:22.087Z,16.78
2023-02-26T18:45:52.596Z,16.61
2023-02-26T18:48:21.971Z,16.93
2023-02-26T18:50:50.325Z,16.96
2023-02-26T18:53:23.189Z,17.07
2023-02-26T18:55:53.071Z,16.64
2023-02-26T18:58:21.115Z,16.45
2023-02-26T19:00:49.203Z,16.58
2023-02-26T19:03:18.538Z,16.96
2023-02-26T19:05:46.565Z,16.60
2023-02-26T19:08:15.360Z,16.93
2023-02-26T19:10:43.378Z,16.84
2023-02-26T19:13:11.405Z,16.72
2023-02-26T19:15:39.320Z,16.86
2023-02-26T19:18:07.318Z,16.69
2023-02-26T19:20:36.744Z,16.75
2023-02-26T19:23:05.788Z,16.37
2023-02-26T19:25:33.973Z,16.36
2023-02-26T19:28:01.963Z,16.85
2023-02-26T19:30:30.138Z,16.33
2023-02-26T19:32:58.677Z,16.44
2023-02-26T19:35:27.207Z,16.60
2023-02-26T19:37:56.643Z,16.38
2023-02-26T19:40:24.723Z,16.79
2023-02-26T19:42:52.719Z,16.44
2023-02-26T19:45:21.050Z,16.57
2023-02-26T19:47:49.034Z,16.34
2023-02-26T19:50:18.279Z,16.48
2023-02-26T19:52:46.476Z,16.86
2023-02-26T19:55:15.812Z,16.66
2023-02-26T19:57:43.840Z,16.86
2023-02-26T20:00:14.113Z,16.62
2023-02-26T20:02:43.037Z,16.51
2023-02-26T20:05:16.767Z,16.70
2023-02-26T20:07:45.224Z,16.69
2023-02-26T20:10:16.138Z,16.79
2023-02-26T20:12:44.243Z,16.71
2023-02-26T20:15:13.142Z,16.31
2023-02-26T20:17:41.169Z,16.46
2023-02-26T20:20:10.500Z,16.73
2023-02-26T20:22:38.462Z,16.93
2023-02-26T20:25:07.055Z,16.37
2023-02-26T20:27:36.807Z,16.35
2023-02-26T20:30:05.044Z,16.53
2023-02-26T20:32:33.115Z,16.58
2023-02-26T20:35:01.189Z,16.13
2023-02-26T20:37:29.187Z,16.09
2023-02-26T20:39:57.127Z,16.25
2023-02-26T20:42:25.217Z,16.05
2023-02-26T20:44:54.656Z,16.41
2023-02-26T20:47:22.690Z,16.34
2023-02-26T20:49:50.633Z,16.54
2023-02-26T20:52:18.715Z,16.08
2023-02-26T20:54:46.671Z,16.56
2023-02-26T20:57:15.782Z,16.17
2023-02-26T20:59:43.690Z,16.12
2023-02-26T21:02:15.501Z,16.25
2023-02-26T21:04:43.631Z,16.14
2023-02-26T21:07:21.626Z,16.39
2023-02-26T21:09:50.106Z,16.37
2023-02-26T21:12:18.607Z,16.68
2023-02-26T21:14:46.890Z,16.14
2023-02-26T21:17:16.279Z,16.06
2023-02-26T21:19:44.224Z,16.44
2023-02-26T21:22:12.259Z,16.54
2023-02-26T21:24:40.391Z,16.43
2023-02-26T21:27:08.290Z,16.15
2023-02-26T21:29:36.371Z,16.30
2023-02-26T21:32:04.839Z,16.25
2023-02-26T21:34:35.443Z,16.51
2023-02-26T21:37:04.562Z,16.41
2023-02-26T21:39:33.026Z,16.05
2023-02-26T21:42:03.699Z,15.90
2023-02-26T21:44:33.121Z,16.24
2023-02-26T21:47:01.646Z,15.88
2023-02-26T21:49:31.692Z,16.29
2023-02-26T21:52:02.116Z,16.01
2023-02-26T21:54:30.726Z,15.86
2023-02-26T21:56:59.306Z,16.00
2023-02-26T21:59:27.650Z,15.76
2023-02-26T22:01:55.720Z,16.22
2023-02-26T22:04:23.916Z,16.14
2023-02-26T22:06:51.874Z,15.82
2023-02-26T22:09:21.915Z,16.10
2023-02-26T22:11:50.081Z,16.07
2023-02-26T22:14:18.092Z,15.92
2023-02-26T22:16:46.250Z,15.78
2023-02-26T22:19:14.271Z,16.22
2023-02-26T22:21:42.267Z,15.99
2023-02-26T22:24:10.208Z,15.81
2023-02-26T22:26:39.622Z,16.13
2023-02-26T22:29:07.660Z,15.98
2023-02-26T22:31:35.669Z,15.89
2023-02-26T22:34:03.695Z,16.09
2023-02-26T22:36:32.231Z,15.74
2023-02-26T22:39:00.299Z,15.96
2023-02-26T22:41:28.325Z,16.12
2023-02-26T22:43:57.758Z,16.02
2023-02-26T22:46:28.371Z,15.77
2023-02-26T22:48:56.579Z,15.83
2023-02-26T22:51:25.451Z,15.85
2023-02-26T22:53:53.683Z,15.91
2023-02-26T22:56:21.633Z,15.70
2023-02-26T22:58:49.646Z,16.15
2023-02-26T23:01:19.252Z,15.66
2023-02-26T23:03:47.507Z,15.83
2023-02-26T23:06:16.152Z,16.06
2023-02-26T23:08:44.122Z,15.57
2023-02-26T23:11:11.996Z,16.12
2023-02-26T23:13:40.049Z,16.04
2023-02-26T23:16:10.573Z,15.79
2023-02-26T23:18:40.158Z,16.00
2023-02-26T23:21:08.872Z,15.93
2023-02-26T23:23:36.900Z,16.03
2023-02-26T23:26:05.166Z,15.60
2023-02-26T23:28:33.516Z,15.81
2023-02-26T23:31:01.564Z,15.59
2023-02-26T23:33:29.832Z,15.66
2023-02-26T23:35:59.151Z,15.68
2023-02-26T23:38:27.174Z,15.78
2023-02-26T23:40:56.745Z,15.93
2023-02-26T23:43:25.107Z,15.69
2023-02-26T23:45:53.229Z,15.70
2023-02-26T23:48:21.308Z,16.19
2023-02-26T23:50:49.946Z,16.22
2023-02-26T23:53:19.238Z,15.82
2023-02-26T23:55:47.774Z,15.63
2023-02-26T23:58:15.942Z,15.79
